sensor_id;sensor_type;location;lat;lon;timestamp;P1;durP1;ratioP1;P2;durP2;ratioP2
70715;SDS011;59053;50.832;12.882;2022-09-24T00:01:36;25.70;;;14.02;;
70715;SDS011;59053;50.832;12.882;2022-09-24T00:04:06;24.90;;;14.23;;
70715;SDS011;59053;50.832;12.882;2022-09-24T00:06:35;26.55;;;14.40;;
70715;SDS011;59053;50.832;12.882;2022-09-24T00:09:01;30.85;;;13.73;;
70715;SDS011;59053;50.832;12.882;2022-09-24T00:11:27;25.97;;;13.40;;
70715;SDS011;59053;50.832;12.882;2022-09-24T00:13:53;23.13;;;12.90;;
70715;SDS011;59053;50.832;12.882;2022-09-24T00:16:19;23.53;;;12.73;;
70715;SDS011;59053;50.832;12.882;2022-09-24T00:18:45;25.25;;;12.70;;
70715;SDS011;59053;50.832;12.882;2022-09-24T00:21:17;21.60;;;11.73;;
70715;SDS011;59053;50.832;12.882;2022-09-24T00:23:43;21.15;;;12.20;;
70715;SDS011;59053;50.832;12.882;2022-09-24T00:26:09;22.60;;;11.90;;
70715;SDS011;59053;50.832;12.882;2022-09-24T00:28:53;21.45;;;11.80;;
70715;SDS011;59053;50.832;12.882;2022-09-24T00:31:18;24.23;;;12.70;;
70715;SDS011;59053;50.832;12.882;2022-09-24T00:33:44;25.80;;;12.87;;
70715;SDS011;59053;50.832;12.882;2022-09-24T00:36:09;24.97;;;13.70;;
70715;SDS011;59053;50.832;12.882;2022-09-24T00:42:04;23.00;;;12.82;;
70715;SDS011;59053;50.832;12.882;2022-09-24T00:47:24;23.63;;;12.67;;
70715;SDS011;59053;50.832;12.882;2022-09-24T00:49:51;26.08;;;13.82;;
70715;SDS011;59053;50.832;12.882;2022-09-24T00:52:19;23.95;;;12.98;;
70715;SDS011;59053;50.832;12.882;2022-09-24T00:54:44;26.37;;;13.10;;
70715;SDS011;59053;50.832;12.882;2022-09-24T00:57:10;23.45;;;13.02;;
70715;SDS011;59053;50.832;12.882;2022-09-24T00:59:35;22.77;;;12.37;;
70715;SDS011;59053;50.832;12.882;2022-09-24T01:02:01;25.33;;;12.37;;
70715;SDS011;59053;50.832;12.882;2022-09-24T01:04:27;24.13;;;12.57;;
70715;SDS011;59053;50.832;12.882;2022-09-24T01:06:52;26.45;;;12.98;;
70715;SDS011;59053;50.832;12.882;2022-09-24T01:09:18;26.40;;;12.63;;
70715;SDS011;59053;50.832;12.882;2022-09-24T01:14:20;22.77;;;12.30;;
70715;SDS011;59053;50.832;12.882;2022-09-24T01:22:05;24.33;;;13.18;;
70715;SDS011;59053;50.832;12.882;2022-09-24T01:24:50;25.55;;;13.25;;
70715;SDS011;59053;50.832;12.882;2022-09-24T01:27:21;24.77;;;13.10;;
70715;SDS011;59053;50.832;12.882;2022-09-24T01:29:52;28.25;;;13.00;;
70715;SDS011;59053;50.832;12.882;2022-09-24T01:35:18;26.10;;;13.23;;
70715;SDS011;59053;50.832;12.882;2022-09-24T01:37:55;24.60;;;13.02;;
70715;SDS011;59053;50.832;12.882;2022-09-24T01:40:23;24.27;;;12.13;;
70715;SDS011;59053;50.832;12.882;2022-09-24T01:42:49;24.27;;;12.77;;
70715;SDS011;59053;50.832;12.882;2022-09-24T01:45:15;23.83;;;12.80;;
70715;SDS011;59053;50.832;12.882;2022-09-24T01:47:41;23.40;;;13.23;;
70715;SDS011;59053;50.832;12.882;2022-09-24T01:50:11;22.13;;;12.43;;
70715;SDS011;59053;50.832;12.882;2022-09-24T01:52:40;22.45;;;12.05;;
70715;SDS011;59053;50.832;12.882;2022-09-24T01:55:09;23.63;;;12.75;;
70715;SDS011;59053;50.832;12.882;2022-09-24T01:57:37;25.57;;;12.27;;
70715;SDS011;59053;50.832;12.882;2022-09-24T02:00:09;23.15;;;12.02;;
70715;SDS011;59053;50.832;12.882;2022-09-24T02:02:57;22.65;;;12.18;;
70715;SDS011;59053;50.832;12.882;2022-09-24T02:05:35;23.98;;;12.23;;
70715;SDS011;59053;50.832;12.882;2022-09-24T02:11:14;22.37;;;11.93;;
70715;SDS011;59053;50.832;12.882;2022-09-24T02:13:42;21.38;;;11.32;;
70715;SDS011;59053;50.832;12.882;2022-09-24T02:16:14;19.85;;;11.38;;
70715;SDS011;59053;50.832;12.882;2022-09-24T02:18:41;21.85;;;11.60;;
70715;SDS011;59053;50.832;12.882;2022-09-24T02:21:14;21.67;;;11.93;;
70715;SDS011;59053;50.832;12.882;2022-09-24T02:26:38;20.88;;;11.50;;
70715;SDS011;59053;50.832;12.882;2022-09-24T02:29:03;23.83;;;11.77;;
70715;SDS011;59053;50.832;12.882;2022-09-24T02:31:30;21.42;;;11.32;;
70715;SDS011;59053;50.832;12.882;2022-09-24T02:33:56;20.67;;;11.70;;
70715;SDS011;59053;50.832;12.882;2022-09-24T02:54:42;21.50;;;11.48;;
70715;SDS011;59053;50.832;12.882;2022-09-24T02:57:07;20.37;;;11.07;;
70715;SDS011;59053;50.832;12.882;2022-09-24T02:59:32;20.60;;;11.70;;
70715;SDS011;59053;50.832;12.882;2022-09-24T03:01:58;21.70;;;10.93;;
70715;SDS011;59053;50.832;12.882;2022-09-24T03:04:23;18.57;;;10.63;;
70715;SDS011;59053;50.832;12.882;2022-09-24T03:06:49;23.10;;;11.00;;
70715;SDS011;59053;50.832;12.882;2022-09-24T03:09:14;21.13;;;10.83;;
70715;SDS011;59053;50.832;12.882;2022-09-24T03:11:39;21.27;;;10.83;;
70715;SDS011;59053;50.832;12.882;2022-09-24T03:14:05;21.53;;;11.17;;
70715;SDS011;59053;50.832;12.882;2022-09-24T03:16:30;20.67;;;10.70;;
70715;SDS011;59053;50.832;12.882;2022-09-24T03:18:55;20.47;;;10.43;;
70715;SDS011;59053;50.832;12.882;2022-09-24T03:21:21;20.03;;;10.50;;
70715;SDS011;59053;50.832;12.882;2022-09-24T03:23:46;19.93;;;10.53;;
70715;SDS011;59053;50.832;12.882;2022-09-24T03:26:11;17.97;;;10.13;;
70715;SDS011;59053;50.832;12.882;2022-09-24T03:28:37;21.83;;;9.93;;
70715;SDS011;59053;50.832;12.882;2022-09-24T03:31:02;18.27;;;9.57;;
70715;SDS011;59053;50.832;12.882;2022-09-24T03:33:30;21.30;;;10.00;;
70715;SDS011;59053;50.832;12.882;2022-09-24T03:35:56;21.70;;;10.40;;
70715;SDS011;59053;50.832;12.882;2022-09-24T03:38:21;19.40;;;10.00;;
70715;SDS011;59053;50.832;12.882;2022-09-24T03:40:46;20.80;;;9.87;;
70715;SDS011;59053;50.832;12.882;2022-09-24T03:43:11;21.67;;;10.50;;
70715;SDS011;59053;50.832;12.882;2022-09-24T03:45:36;19.00;;;9.73;;
70715;SDS011;59053;50.832;12.882;2022-09-24T03:48:02;16.90;;;9.77;;
70715;SDS011;59053;50.832;12.882;2022-09-24T03:50:30;19.38;;;9.60;;
70715;SDS011;59053;50.832;12.882;2022-09-24T03:52:55;18.37;;;9.67;;
70715;SDS011;59053;50.832;12.882;2022-09-24T03:55:20;19.07;;;9.70;;
70715;SDS011;59053;50.832;12.882;2022-09-24T03:57:45;19.20;;;10.03;;
70715;SDS011;59053;50.832;12.882;2022-09-24T04:00:11;19.63;;;10.27;;
70715;SDS011;59053;50.832;12.882;2022-09-24T04:05:15;17.85;;;9.90;;
70715;SDS011;59053;50.832;12.882;2022-09-24T04:07:43;19.53;;;10.67;;
70715;SDS011;59053;50.832;12.882;2022-09-24T04:10:09;20.33;;;11.00;;
70715;SDS011;59053;50.832;12.882;2022-09-24T04:12:34;20.97;;;10.43;;
70715;SDS011;59053;50.832;12.882;2022-09-24T04:15:00;21.33;;;11.30;;
70715;SDS011;59053;50.832;12.882;2022-09-24T04:17:26;22.75;;;11.48;;
70715;SDS011;59053;50.832;12.882;2022-09-24T04:19:53;21.67;;;11.52;;
70715;SDS011;59053;50.832;12.882;2022-09-24T04:22:18;24.88;;;12.02;;
70715;SDS011;59053;50.832;12.882;2022-09-24T04:24:44;20.50;;;11.13;;
70715;SDS011;59053;50.832;12.882;2022-09-24T04:27:10;22.07;;;10.57;;
70715;SDS011;59053;50.832;12.882;2022-09-24T04:29:35;20.80;;;10.67;;
70715;SDS011;59053;50.832;12.882;2022-09-24T04:32:00;21.17;;;10.80;;
70715;SDS011;59053;50.832;12.882;2022-09-24T04:34:25;19.55;;;10.73;;
70715;SDS011;59053;50.832;12.882;2022-09-24T04:36:51;20.67;;;10.53;;
70715;SDS011;59053;50.832;12.882;2022-09-24T04:39:16;19.70;;;10.30;;
70715;SDS011;59053;50.832;12.882;2022-09-24T04:41:41;17.77;;;9.43;;
70715;SDS011;59053;50.832;12.882;2022-09-24T04:44:12;19.43;;;9.80;;
70715;SDS011;59053;50.832;12.882;2022-09-24T04:46:39;18.60;;;9.53;;
70715;SDS011;59053;50.832;12.882;2022-09-24T04:49:04;20.92;;;10.55;;
70715;SDS011;59053;50.832;12.882;2022-09-24T04:51:29;20.63;;;10.67;;
70715;SDS011;59053;50.832;12.882;2022-09-24T04:53:57;19.38;;;9.85;;
70715;SDS011;59053;50.832;12.882;2022-09-24T04:56:23;16.87;;;9.70;;
70715;SDS011;59053;50.832;12.882;2022-09-24T04:58:49;19.43;;;10.33;;
70715;SDS011;59053;50.832;12.882;2022-09-24T05:01:14;19.85;;;10.30;;
70715;SDS011;59053;50.832;12.882;2022-09-24T05:03:40;18.80;;;10.10;;
70715;SDS011;59053;50.832;12.882;2022-09-24T05:06:05;21.13;;;10.20;;
70715;SDS011;59053;50.832;12.882;2022-09-24T05:08:30;17.13;;;9.43;;
70715;SDS011;59053;50.832;12.882;2022-09-24T05:10:55;17.20;;;9.53;;
70715;SDS011;59053;50.832;12.882;2022-09-24T05:13:20;19.07;;;9.80;;
70715;SDS011;59053;50.832;12.882;2022-09-24T05:29:14;16.90;;;9.13;;
70715;SDS011;59053;50.832;12.882;2022-09-24T05:31:40;18.47;;;9.43;;
70715;SDS011;59053;50.832;12.882;2022-09-24T05:34:05;18.73;;;9.40;;
70715;SDS011;59053;50.832;12.882;2022-09-24T05:36:30;16.92;;;8.75;;
70715;SDS011;59053;50.832;12.882;2022-09-24T05:38:55;17.83;;;8.60;;
70715;SDS011;59053;50.832;12.882;2022-09-24T05:41:21;19.10;;;9.87;;
70715;SDS011;59053;50.832;12.882;2022-09-24T05:43:46;18.63;;;9.53;;
70715;SDS011;59053;50.832;12.882;2022-09-24T05:46:11;17.77;;;9.57;;
70715;SDS011;59053;50.832;12.882;2022-09-24T05:48:37;16.57;;;9.60;;
70715;SDS011;59053;50.832;12.882;2022-09-24T05:51:02;17.93;;;9.30;;
70715;SDS011;59053;50.832;12.882;2022-09-24T05:53:28;17.55;;;9.50;;
70715;SDS011;59053;50.832;12.882;2022-09-24T05:55:53;18.03;;;9.20;;
70715;SDS011;59053;50.832;12.882;2022-09-24T05:58:20;17.97;;;9.97;;
70715;SDS011;59053;50.832;12.882;2022-09-24T06:00:46;17.92;;;9.18;;
70715;SDS011;59053;50.832;12.882;2022-09-24T06:03:12;18.30;;;9.60;;
70715;SDS011;59053;50.832;12.882;2022-09-24T06:05:41;17.97;;;9.57;;
70715;SDS011;59053;50.832;12.882;2022-09-24T06:14:16;16.50;;;9.50;;
70715;SDS011;59053;50.832;12.882;2022-09-24T06:16:41;19.23;;;9.23;;
70715;SDS011;59053;50.832;12.882;2022-09-24T06:19:06;18.43;;;8.70;;
70715;SDS011;59053;50.832;12.882;2022-09-24T06:21:32;15.20;;;9.00;;
70715;SDS011;59053;50.832;12.882;2022-09-24T06:23:57;16.53;;;9.07;;
70715;SDS011;59053;50.832;12.882;2022-09-24T06:26:22;21.37;;;9.53;;
70715;SDS011;59053;50.832;12.882;2022-09-24T06:28:50;19.17;;;9.80;;
70715;SDS011;59053;50.832;12.882;2022-09-24T06:31:15;21.83;;;9.93;;
70715;SDS011;59053;50.832;12.882;2022-09-24T06:33:40;17.10;;;10.03;;
70715;SDS011;59053;50.832;12.882;2022-09-24T06:36:06;17.80;;;9.70;;
70715;SDS011;59053;50.832;12.882;2022-09-24T06:38:32;19.63;;;9.30;;
70715;SDS011;59053;50.832;12.882;2022-09-24T06:40:58;18.77;;;9.83;;
70715;SDS011;59053;50.832;12.882;2022-09-24T06:43:24;17.58;;;9.40;;
70715;SDS011;59053;50.832;12.882;2022-09-24T06:45:49;15.97;;;9.13;;
70715;SDS011;59053;50.832;12.882;2022-09-24T06:48:14;17.20;;;9.23;;
70715;SDS011;59053;50.832;12.882;2022-09-24T06:50:40;16.53;;;9.13;;
70715;SDS011;59053;50.832;12.882;2022-09-24T06:53:06;17.98;;;8.95;;
70715;SDS011;59053;50.832;12.882;2022-09-24T06:55:32;13.98;;;8.50;;
70715;SDS011;59053;50.832;12.882;2022-09-24T06:58:07;15.63;;;8.57;;
70715;SDS011;59053;50.832;12.882;2022-09-24T07:00:34;14.47;;;8.23;;
70715;SDS011;59053;50.832;12.882;2022-09-24T07:03:04;13.55;;;8.52;;
70715;SDS011;59053;50.832;12.882;2022-09-24T07:05:41;13.70;;;8.07;;
70715;SDS011;59053;50.832;12.882;2022-09-24T07:08:06;16.15;;;8.82;;
70715;SDS011;59053;50.832;12.882;2022-09-24T07:10:31;14.77;;;8.80;;
70715;SDS011;59053;50.832;12.882;2022-09-24T07:12:56;15.67;;;8.30;;
70715;SDS011;59053;50.832;12.882;2022-09-24T07:15:24;16.98;;;8.55;;
70715;SDS011;59053;50.832;12.882;2022-09-24T07:17:53;14.87;;;8.70;;
70715;SDS011;59053;50.832;12.882;2022-09-24T07:20:18;15.43;;;8.63;;
70715;SDS011;59053;50.832;12.882;2022-09-24T07:22:43;16.93;;;8.87;;
70715;SDS011;59053;50.832;12.882;2022-09-24T07:25:09;18.07;;;8.57;;
70715;SDS011;59053;50.832;12.882;2022-09-24T07:27:38;14.65;;;8.45;;
70715;SDS011;59053;50.832;12.882;2022-09-24T07:30:07;13.33;;;8.30;;
70715;SDS011;59053;50.832;12.882;2022-09-24T07:32:34;14.52;;;8.90;;
70715;SDS011;59053;50.832;12.882;2022-09-24T07:35:08;13.47;;;7.87;;
70715;SDS011;59053;50.832;12.882;2022-09-24T07:37:33;13.13;;;7.65;;
70715;SDS011;59053;50.832;12.882;2022-09-24T07:39:59;13.37;;;7.87;;
70715;SDS011;59053;50.832;12.882;2022-09-24T07:48:26;13.27;;;8.88;;
70715;SDS011;59053;50.832;12.882;2022-09-24T07:50:52;14.63;;;9.37;;
70715;SDS011;59053;50.832;12.882;2022-09-24T07:53:17;13.80;;;7.83;;
70715;SDS011;59053;50.832;12.882;2022-09-24T07:55:42;12.73;;;7.40;;
70715;SDS011;59053;50.832;12.882;2022-09-24T07:58:10;11.37;;;7.30;;
70715;SDS011;59053;50.832;12.882;2022-09-24T08:00:35;10.65;;;6.70;;
70715;SDS011;59053;50.832;12.882;2022-09-24T08:03:01;11.10;;;6.47;;
70715;SDS011;59053;50.832;12.882;2022-09-24T08:05:26;10.15;;;6.22;;
70715;SDS011;59053;50.832;12.882;2022-09-24T08:07:53;10.00;;;6.30;;
70715;SDS011;59053;50.832;12.882;2022-09-24T08:10:33;11.05;;;6.20;;
70715;SDS011;59053;50.832;12.882;2022-09-24T08:13:07;8.85;;;6.00;;
70715;SDS011;59053;50.832;12.882;2022-09-24T08:15:38;11.80;;;6.03;;
70715;SDS011;59053;50.832;12.882;2022-09-24T08:18:05;12.05;;;6.20;;
70715;SDS011;59053;50.832;12.882;2022-09-24T08:20:31;9.40;;;6.07;;
70715;SDS011;59053;50.832;12.882;2022-09-24T08:23:00;13.13;;;6.45;;
70715;SDS011;59053;50.832;12.882;2022-09-24T08:25:29;11.52;;;6.60;;
70715;SDS011;59053;50.832;12.882;2022-09-24T08:30:51;10.85;;;5.68;;
70715;SDS011;59053;50.832;12.882;2022-09-24T08:33:16;11.23;;;5.60;;
70715;SDS011;59053;50.832;12.882;2022-09-24T08:36:27;10.07;;;5.70;;
70715;SDS011;59053;50.832;12.882;2022-09-24T08:44:42;9.65;;;5.90;;
70715;SDS011;59053;50.832;12.882;2022-09-24T08:55:13;9.40;;;5.18;;
70715;SDS011;59053;50.832;12.882;2022-09-24T08:57:43;8.23;;;5.30;;
70715;SDS011;59053;50.832;12.882;2022-09-24T09:00:12;11.07;;;5.75;;
70715;SDS011;59053;50.832;12.882;2022-09-24T09:08:08;7.10;;;4.18;;
70715;SDS011;59053;50.832;12.882;2022-09-24T09:10:35;7.43;;;4.07;;
70715;SDS011;59053;50.832;12.882;2022-09-24T09:13:14;7.70;;;4.45;;
70715;SDS011;59053;50.832;12.882;2022-09-24T09:15:42;12.90;;;4.03;;
70715;SDS011;59053;50.832;12.882;2022-09-24T09:18:11;6.40;;;3.85;;
70715;SDS011;59053;50.832;12.882;2022-09-24T09:20:39;7.65;;;4.28;;
70715;SDS011;59053;50.832;12.882;2022-09-24T09:23:09;7.22;;;4.35;;
70715;SDS011;59053;50.832;12.882;2022-09-24T09:25:40;6.22;;;3.63;;
70715;SDS011;59053;50.832;12.882;2022-09-24T09:28:09;6.77;;;3.60;;
70715;SDS011;59053;50.832;12.882;2022-09-24T09:33:30;9.40;;;3.97;;
70715;SDS011;59053;50.832;12.882;2022-09-24T09:38:40;6.40;;;3.70;;
70715;SDS011;59053;50.832;12.882;2022-09-24T09:41:28;6.38;;;3.55;;
70715;SDS011;59053;50.832;12.882;2022-09-24T09:43:59;8.13;;;3.60;;
70715;SDS011;59053;50.832;12.882;2022-09-24T09:46:26;6.68;;;3.58;;
70715;SDS011;59053;50.832;12.882;2022-09-24T09:48:55;6.05;;;3.47;;
70715;SDS011;59053;50.832;12.882;2022-09-24T09:51:25;7.10;;;3.58;;
70715;SDS011;59053;50.832;12.882;2022-09-24T09:56:21;7.03;;;3.50;;
70715;SDS011;59053;50.832;12.882;2022-09-24T09:58:47;7.07;;;3.20;;
70715;SDS011;59053;50.832;12.882;2022-09-24T10:01:17;5.25;;;2.95;;
70715;SDS011;59053;50.832;12.882;2022-09-24T10:03:46;6.88;;;3.40;;
70715;SDS011;59053;50.832;12.882;2022-09-24T10:06:22;5.77;;;3.23;;
70715;SDS011;59053;50.832;12.882;2022-09-24T10:08:49;4.28;;;2.80;;
70715;SDS011;59053;50.832;12.882;2022-09-24T10:11:14;4.90;;;3.10;;
70715;SDS011;59053;50.832;12.882;2022-09-24T10:13:40;5.60;;;3.30;;
70715;SDS011;59053;50.832;12.882;2022-09-24T10:16:07;5.10;;;3.00;;
70715;SDS011;59053;50.832;12.882;2022-09-24T10:18:33;4.80;;;2.60;;
70715;SDS011;59053;50.832;12.882;2022-09-24T10:21:04;5.25;;;2.70;;
70715;SDS011;59053;50.832;12.882;2022-09-24T10:23:35;10.40;;;3.20;;
70715;SDS011;59053;50.832;12.882;2022-09-24T10:26:02;4.97;;;3.17;;
70715;SDS011;59053;50.832;12.882;2022-09-24T10:28:28;6.40;;;3.60;;
70715;SDS011;59053;50.832;12.882;2022-09-24T10:31:15;5.03;;;3.13;;
70715;SDS011;59053;50.832;12.882;2022-09-24T10:33:42;5.50;;;3.00;;
70715;SDS011;59053;50.832;12.882;2022-09-24T10:36:13;4.90;;;2.90;;
70715;SDS011;59053;50.832;12.882;2022-09-24T10:38:39;5.53;;;3.08;;
70715;SDS011;59053;50.832;12.882;2022-09-24T10:43:50;6.60;;;3.40;;
70715;SDS011;59053;50.832;12.882;2022-09-24T10:46:25;8.02;;;4.32;;
70715;SDS011;59053;50.832;12.882;2022-09-24T10:54:52;6.63;;;3.78;;
70715;SDS011;59053;50.832;12.882;2022-09-24T10:57:33;8.63;;;4.60;;
70715;SDS011;59053;50.832;12.882;2022-09-24T11:00:14;8.65;;;4.50;;
70715;SDS011;59053;50.832;12.882;2022-09-24T11:02:51;9.68;;;4.35;;
70715;SDS011;59053;50.832;12.882;2022-09-24T11:05:23;7.20;;;4.30;;
70715;SDS011;59053;50.832;12.882;2022-09-24T11:18:17;7.07;;;4.00;;
70715;SDS011;59053;50.832;12.882;2022-09-24T11:20:51;7.60;;;3.97;;
70715;SDS011;59053;50.832;12.882;2022-09-24T11:28:23;8.80;;;3.97;;
70715;SDS011;59053;50.832;12.882;2022-09-24T11:36:28;5.60;;;3.60;;
70715;SDS011;59053;50.832;12.882;2022-09-24T11:39:03;5.85;;;3.63;;
70715;SDS011;59053;50.832;12.882;2022-09-24T11:41:39;7.25;;;3.90;;
70715;SDS011;59053;50.832;12.882;2022-09-24T11:46:57;8.82;;;4.20;;
70715;SDS011;59053;50.832;12.882;2022-09-24T11:50:02;7.85;;;4.32;;
70715;SDS011;59053;50.832;12.882;2022-09-24T11:52:37;7.13;;;4.32;;
70715;SDS011;59053;50.832;12.882;2022-09-24T11:55:24;6.82;;;3.88;;
70715;SDS011;59053;50.832;12.882;2022-09-24T11:57:59;6.77;;;3.73;;
70715;SDS011;59053;50.832;12.882;2022-09-24T12:00:26;7.85;;;4.00;;
70715;SDS011;59053;50.832;12.882;2022-09-24T12:12:33;5.47;;;3.37;;
70715;SDS011;59053;50.832;12.882;2022-09-24T12:15:04;7.28;;;3.83;;
70715;SDS011;59053;50.832;12.882;2022-09-24T12:17:42;6.47;;;3.80;;
70715;SDS011;59053;50.832;12.882;2022-09-24T12:20:13;6.80;;;4.07;;
70715;SDS011;59053;50.832;12.882;2022-09-24T12:22:42;5.95;;;3.95;;
70715;SDS011;59053;50.832;12.882;2022-09-24T12:25:22;6.07;;;3.47;;
70715;SDS011;59053;50.832;12.882;2022-09-24T12:27:47;7.45;;;3.72;;
70715;SDS011;59053;50.832;12.882;2022-09-24T12:33:02;7.77;;;4.20;;
70715;SDS011;59053;50.832;12.882;2022-09-24T12:46:21;6.25;;;3.65;;
70715;SDS011;59053;50.832;12.882;2022-09-24T12:48:48;7.23;;;4.20;;
70715;SDS011;59053;50.832;12.882;2022-09-24T12:51:14;6.60;;;3.92;;
70715;SDS011;59053;50.832;12.882;2022-09-24T12:53:41;7.07;;;3.60;;
70715;SDS011;59053;50.832;12.882;2022-09-24T12:56:07;6.95;;;4.07;;
70715;SDS011;59053;50.832;12.882;2022-09-24T12:58:43;9.63;;;4.45;;
70715;SDS011;59053;50.832;12.882;2022-09-24T13:04:04;6.57;;;4.30;;
70715;SDS011;59053;50.832;12.882;2022-09-24T13:06:36;6.43;;;3.97;;
70715;SDS011;59053;50.832;12.882;2022-09-24T13:11:46;7.03;;;4.13;;
70715;SDS011;59053;50.832;12.882;2022-09-24T13:21:56;7.60;;;4.23;;
70715;SDS011;59053;50.832;12.882;2022-09-24T13:24:25;8.73;;;4.00;;
70715;SDS011;59053;50.832;12.882;2022-09-24T13:26:52;6.40;;;3.80;;
70715;SDS011;59053;50.832;12.882;2022-09-24T13:29:27;7.63;;;4.20;;
70715;SDS011;59053;50.832;12.882;2022-09-24T13:32:01;7.63;;;4.20;;
70715;SDS011;59053;50.832;12.882;2022-09-24T13:34:27;8.07;;;4.70;;
70715;SDS011;59053;50.832;12.882;2022-09-24T13:37:08;8.90;;;4.33;;
70715;SDS011;59053;50.832;12.882;2022-09-24T13:39:46;6.97;;;4.50;;
70715;SDS011;59053;50.832;12.882;2022-09-24T13:42:32;6.53;;;4.07;;
70715;SDS011;59053;50.832;12.882;2022-09-24T13:44:59;7.47;;;4.05;;
70715;SDS011;59053;50.832;12.882;2022-09-24T13:49:55;6.80;;;4.10;;
70715;SDS011;59053;50.832;12.882;2022-09-24T13:55:23;8.73;;;4.45;;
70715;SDS011;59053;50.832;12.882;2022-09-24T13:57:49;7.10;;;4.05;;
70715;SDS011;59053;50.832;12.882;2022-09-24T14:05:45;7.37;;;4.20;;
70715;SDS011;59053;50.832;12.882;2022-09-24T14:08:13;7.97;;;4.90;;
70715;SDS011;59053;50.832;12.882;2022-09-24T14:10:39;8.85;;;4.50;;
70715;SDS011;59053;50.832;12.882;2022-09-24T14:13:18;7.50;;;4.70;;
70715;SDS011;59053;50.832;12.882;2022-09-24T14:18:18;6.80;;;4.35;;
70715;SDS011;59053;50.832;12.882;2022-09-24T14:20:44;8.27;;;4.77;;
70715;SDS011;59053;50.832;12.882;2022-09-24T14:23:15;6.07;;;4.10;;
70715;SDS011;59053;50.832;12.882;2022-09-24T14:25:41;6.75;;;4.20;;
70715;SDS011;59053;50.832;12.882;2022-09-24T14:28:08;6.50;;;4.00;;
70715;SDS011;59053;50.832;12.882;2022-09-24T14:30:50;6.30;;;3.83;;
70715;SDS011;59053;50.832;12.882;2022-09-24T14:33:16;5.90;;;3.50;;
70715;SDS011;59053;50.832;12.882;2022-09-24T14:35:44;6.63;;;4.05;;
70715;SDS011;59053;50.832;12.882;2022-09-24T14:38:24;5.97;;;3.40;;
70715;SDS011;59053;50.832;12.882;2022-09-24T14:40:57;5.20;;;3.23;;
70715;SDS011;59053;50.832;12.882;2022-09-24T14:43:29;6.25;;;3.45;;
70715;SDS011;59053;50.832;12.882;2022-09-24T14:46:00;6.38;;;3.58;;
70715;SDS011;59053;50.832;12.882;2022-09-24T14:48:27;6.03;;;3.38;;
70715;SDS011;59053;50.832;12.882;2022-09-24T14:50:53;5.90;;;3.50;;
70715;SDS011;59053;50.832;12.882;2022-09-24T14:53:20;5.37;;;3.50;;
70715;SDS011;59053;50.832;12.882;2022-09-24T14:55:46;6.43;;;3.50;;
70715;SDS011;59053;50.832;12.882;2022-09-24T15:00:55;8.68;;;3.80;;
70715;SDS011;59053;50.832;12.882;2022-09-24T15:08:35;6.60;;;3.70;;
70715;SDS011;59053;50.832;12.882;2022-09-24T15:11:01;6.03;;;3.67;;
70715;SDS011;59053;50.832;12.882;2022-09-24T15:13:34;4.97;;;3.22;;
70715;SDS011;59053;50.832;12.882;2022-09-24T15:16:03;7.90;;;3.40;;
70715;SDS011;59053;50.832;12.882;2022-09-24T15:18:29;26.63;;;7.80;;
70715;SDS011;59053;50.832;12.882;2022-09-24T15:20:55;7.70;;;3.70;;
70715;SDS011;59053;50.832;12.882;2022-09-24T15:23:22;5.63;;;3.67;;
70715;SDS011;59053;50.832;12.882;2022-09-24T15:25:48;6.57;;;3.50;;
70715;SDS011;59053;50.832;12.882;2022-09-24T15:28:13;6.17;;;3.97;;
70715;SDS011;59053;50.832;12.882;2022-09-24T15:30:46;6.10;;;3.90;;
70715;SDS011;59053;50.832;12.882;2022-09-24T15:33:11;15.65;;;9.73;;
70715;SDS011;59053;50.832;12.882;2022-09-24T15:35:37;15.77;;;8.30;;
70715;SDS011;59053;50.832;12.882;2022-09-24T15:38:03;9.48;;;5.80;;
70715;SDS011;59053;50.832;12.882;2022-09-24T15:40:28;9.10;;;4.80;;
70715;SDS011;59053;50.832;12.882;2022-09-24T15:43:00;8.52;;;4.30;;
70715;SDS011;59053;50.832;12.882;2022-09-24T15:45:26;6.70;;;3.90;;
70715;SDS011;59053;50.832;12.882;2022-09-24T15:47:52;6.50;;;3.90;;
70715;SDS011;59053;50.832;12.882;2022-09-24T15:53:46;6.88;;;4.07;;
70715;SDS011;59053;50.832;12.882;2022-09-24T15:56:11;11.50;;;5.40;;
70715;SDS011;59053;50.832;12.882;2022-09-24T16:01:36;12.80;;;7.88;;
70715;SDS011;59053;50.832;12.882;2022-09-24T16:04:01;11.40;;;7.10;;
70715;SDS011;59053;50.832;12.882;2022-09-24T16:06:28;8.67;;;4.70;;
70715;SDS011;59053;50.832;12.882;2022-09-24T16:08:53;10.43;;;4.30;;
70715;SDS011;59053;50.832;12.882;2022-09-24T16:21:52;5.68;;;3.88;;
70715;SDS011;59053;50.832;12.882;2022-09-24T16:24:17;8.10;;;3.70;;
70715;SDS011;59053;50.832;12.882;2022-09-24T16:26:43;6.77;;;3.90;;
70715;SDS011;59053;50.832;12.882;2022-09-24T16:29:10;7.00;;;4.10;;
70715;SDS011;59053;50.832;12.882;2022-09-24T16:31:36;7.60;;;4.07;;
70715;SDS011;59053;50.832;12.882;2022-09-24T16:34:01;8.33;;;4.77;;
70715;SDS011;59053;50.832;12.882;2022-09-24T16:40:02;9.90;;;4.63;;
70715;SDS011;59053;50.832;12.882;2022-09-24T16:42:27;8.27;;;4.80;;
70715;SDS011;59053;50.832;12.882;2022-09-24T16:44:53;9.10;;;4.70;;
70715;SDS011;59053;50.832;12.882;2022-09-24T16:47:18;8.10;;;5.20;;
70715;SDS011;59053;50.832;12.882;2022-09-24T16:49:44;7.82;;;4.90;;
70715;SDS011;59053;50.832;12.882;2022-09-24T16:52:10;8.70;;;5.30;;
70715;SDS011;59053;50.832;12.882;2022-09-24T16:54:35;12.00;;;5.60;;
70715;SDS011;59053;50.832;12.882;2022-09-24T16:57:01;11.27;;;5.97;;
70715;SDS011;59053;50.832;12.882;2022-09-24T16:59:27;10.45;;;5.82;;
70715;SDS011;59053;50.832;12.882;2022-09-24T17:01:52;12.37;;;6.17;;
70715;SDS011;59053;50.832;12.882;2022-09-24T17:04:18;11.23;;;6.37;;
70715;SDS011;59053;50.832;12.882;2022-09-24T17:06:43;17.93;;;8.50;;
70715;SDS011;59053;50.832;12.882;2022-09-24T17:09:09;19.48;;;9.50;;
70715;SDS011;59053;50.832;12.882;2022-09-24T17:11:53;16.35;;;8.13;;
70715;SDS011;59053;50.832;12.882;2022-09-24T17:14:20;13.95;;;7.47;;
70715;SDS011;59053;50.832;12.882;2022-09-24T17:16:46;16.40;;;8.10;;
70715;SDS011;59053;50.832;12.882;2022-09-24T17:19:11;16.23;;;8.37;;
70715;SDS011;59053;50.832;12.882;2022-09-24T17:21:37;14.63;;;7.10;;
70715;SDS011;59053;50.832;12.882;2022-09-24T17:24:03;9.95;;;6.50;;
70715;SDS011;59053;50.832;12.882;2022-09-24T17:26:28;12.77;;;6.97;;
70715;SDS011;59053;50.832;12.882;2022-09-24T17:28:54;11.80;;;7.20;;
70715;SDS011;59053;50.832;12.882;2022-09-24T17:31:20;10.67;;;6.73;;
70715;SDS011;59053;50.832;12.882;2022-09-24T17:33:47;10.70;;;6.50;;
70715;SDS011;59053;50.832;12.882;2022-09-24T17:36:19;15.45;;;7.05;;
70715;SDS011;59053;50.832;12.882;2022-09-24T17:38:45;11.88;;;6.38;;
70715;SDS011;59053;50.832;12.882;2022-09-24T17:41:11;11.90;;;6.30;;
70715;SDS011;59053;50.832;12.882;2022-09-24T17:43:37;13.00;;;6.20;;
70715;SDS011;59053;50.832;12.882;2022-09-24T17:46:24;11.90;;;6.43;;
70715;SDS011;59053;50.832;12.882;2022-09-24T17:48:50;11.43;;;6.50;;
70715;SDS011;59053;50.832;12.882;2022-09-24T17:51:16;11.15;;;6.75;;
70715;SDS011;59053;50.832;12.882;2022-09-24T17:53:43;10.32;;;6.43;;
70715;SDS011;59053;50.832;12.882;2022-09-24T17:56:09;13.03;;;7.10;;
70715;SDS011;59053;50.832;12.882;2022-09-24T17:58:46;12.30;;;7.33;;
70715;SDS011;59053;50.832;12.882;2022-09-24T18:03:37;13.53;;;7.40;;